sensor_id;sensor_type;location;lat;lon;timestamp;pressure;altitude;pressure_sealevel;temperature;humidity
54994;BME280;40891;47.242;8.648;2024-02-04T00:01:14;97621.94;;;4.65;100.00
54994;BME280;40891;47.242;8.648;2024-02-04T00:03:40;97619.19;;;4.65;100.00
54994;BME280;40891;47.242;8.648;2024-02-04T00:06:05;97617.66;;;4.67;100.00
54994;BME280;40891;47.242;8.648;2024-02-04T00:08:31;97616.47;;;4.68;100.00
54994;BME280;40891;47.242;8.648;2024-02-04T00:10:57;97611.75;;;4.69;100.00
54994;BME280;40891;47.242;8.648;2024-02-04T00:13:22;97610.59;;;4.70;100.00
54994;BME280;40891;47.242;8.648;2024-02-04T00:15:48;97613.28;;;4.66;100.00
54994;BME280;40891;47.242;8.648;2024-02-04T00:18:13;97618.84;;;4.70;100.00
54994;BME280;40891;47.242;8.648;2024-02-04T00:20:38;97625.94;;;4.74;100.00
54994;BME280;40891;47.242;8.648;2024-02-04T00:23:04;97639.31;;;4.76;100.00
54994;BME280;40891;47.242;8.648;2024-02-04T00:25:29;97637.00;;;4.81;100.00
54994;BME280;40891;47.242;8.648;2024-02-04T00:27:54;97639.38;;;4.83;100.00
54994;BME280;40891;47.242;8.648;2024-02-04T00:30:20;97636.25;;;4.88;100.00
54994;BME280;40891;47.242;8.648;2024-02-04T00:32:45;97648.13;;;4.92;100.00
54994;BME280;40891;47.242;8.648;2024-02-04T00:35:11;97650.47;;;4.94;100.00
54994;BME280;40891;47.242;8.648;2024-02-04T00:37:36;97647.28;;;4.88;100.00
54994;BME280;40891;47.242;8.648;2024-02-04T00:40:01;97663.81;;;4.85;100.00
54994;BME280;40891;47.242;8.648;2024-02-04T00:42:27;97672.88;;;4.89;100.00
54994;BME280;40891;47.242;8.648;2024-02-04T00:44:52;97677.13;;;4.79;100.00
54994;BME280;40891;47.242;8.648;2024-02-04T00:47:18;97681.91;;;4.86;100.00
54994;BME280;40891;47.242;8.648;2024-02-04T00:49:43;97682.72;;;4.90;100.00
54994;BME280;40891;47.242;8.648;2024-02-04T00:52:08;97683.53;;;4.94;100.00
54994;BME280;40891;47.242;8.648;2024-02-04T00:54:33;97693.41;;;4.98;100.00
54994;BME280;40891;47.242;8.648;2024-02-04T00:56:59;97692.28;;;5.06;100.00
54994;BME280;40891;47.242;8.648;2024-02-04T00:59:25;97697.00;;;5.09;100.00
54994;BME280;40891;47.242;8.648;2024-02-04T01:01:50;97686.78;;;5.06;100.00
54994;BME280;40891;47.242;8.648;2024-02-04T01:04:15;97688.75;;;5.09;100.00
54994;BME280;40891;47.242;8.648;2024-02-04T01:06:41;97690.31;;;5.07;100.00
54994;BME280;40891;47.242;8.648;2024-02-04T01:09:06;97685.16;;;5.02;100.00
54994;BME280;40891;47.242;8.648;2024-02-04T01:11:33;97688.75;;;5.06;100.00
54994;BME280;40891;47.242;8.648;2024-02-04T01:13:59;97693.44;;;5.05;100.00
54994;BME280;40891;47.242;8.648;2024-02-04T01:16:24;97703.69;;;5.01;100.00
54994;BME280;40891;47.242;8.648;2024-02-04T01:18:49;97704.16;;;5.17;100.00
54994;BME280;40891;47.242;8.648;2024-02-04T01:21:15;97701.03;;;5.22;100.00
54994;BME280;40891;47.242;8.648;2024-02-04T01:23:40;97686.91;;;5.27;100.00
54994;BME280;40891;47.242;8.648;2024-02-04T01:26:05;97684.91;;;5.28;100.00
54994;BME280;40891;47.242;8.648;2024-02-04T01:28:30;97676.34;;;5.43;100.00
54994;BME280;40891;47.242;8.648;2024-02-04T01:30:56;97672.00;;;5.49;100.00
54994;BME280;40891;47.242;8.648;2024-02-04T01:33:21;97674.31;;;5.33;100.00
54994;BME280;40891;47.242;8.648;2024-02-04T01:35:46;97684.13;;;5.27;100.00
54994;BME280;40891;47.242;8.648;2024-02-04T01:38:11;97686.09;;;5.27;100.00
54994;BME280;40891;47.242;8.648;2024-02-04T01:40:37;97671.53;;;5.26;100.00
54994;BME280;40891;47.242;8.648;2024-02-04T01:43:02;97658.53;;;5.30;100.00
54994;BME280;40891;47.242;8.648;2024-02-04T01:45:28;97659.72;;;5.29;100.00
54994;BME280;40891;47.242;8.648;2024-02-04T01:47:54;97668.78;;;5.30;100.00
54994;BME280;40891;47.242;8.648;2024-02-04T01:50:20;97656.63;;;5.41;100.00
54994;BME280;40891;47.242;8.648;2024-02-04T01:52:46;97649.94;;;5.49;100.00
54994;BME280;40891;47.242;8.648;2024-02-04T01:55:12;97637.72;;;5.43;100.00
54994;BME280;40891;47.242;8.648;2024-02-04T01:57:37;97635.41;;;5.53;100.00
54994;BME280;40891;47.242;8.648;2024-02-04T02:00:04;97620.44;;;5.54;100.00
54994;BME280;40891;47.242;8.648;2024-02-04T02:02:30;97604.25;;;5.48;100.00
54994;BME280;40891;47.242;8.648;2024-02-04T02:04:57;97601.13;;;5.54;100.00
54994;BME280;40891;47.242;8.648;2024-02-04T02:07:23;97593.59;;;5.43;100.00
54994;BME280;40891;47.242;8.648;2024-02-04T02:09:52;97591.66;;;5.55;100.00
54994;BME280;40891;47.242;8.648;2024-02-04T02:12:22;97583.41;;;5.69;100.00
54994;BME280;40891;47.242;8.648;2024-02-04T02:14:52;97589.69;;;5.48;100.00
54994;BME280;40891;47.242;8.648;2024-02-04T02:17:24;97583.38;;;5.47;100.00
54994;BME280;40891;47.242;8.648;2024-02-04T02:20:00;97586.91;;;5.48;100.00
54994;BME280;40891;47.242;8.648;2024-02-04T02:22:50;97597.13;;;5.30;100.00
54994;BME280;40891;47.242;8.648;2024-02-04T02:25:26;97586.06;;;5.26;100.00
54994;BME280;40891;47.242;8.648;2024-02-04T02:27:52;97592.31;;;5.13;100.00
54994;BME280;40891;47.242;8.648;2024-02-04T02:30:18;97606.03;;;5.02;100.00
54994;BME280;40891;47.242;8.648;2024-02-04T02:32:48;97609.91;;;4.87;100.00
54994;BME280;40891;47.242;8.648;2024-02-04T02:35:14;97616.22;;;4.91;100.00
54994;BME280;40891;47.242;8.648;2024-02-04T02:37:46;97610.34;;;4.96;100.00
54994;BME280;40891;47.242;8.648;2024-02-04T02:40:19;97612.69;;;4.98;100.00
54994;BME280;40891;47.242;8.648;2024-02-04T02:42:47;97613.50;;;5.02;100.00
54994;BME280;40891;47.242;8.648;2024-02-04T02:45:13;97627.28;;;4.98;100.00
54994;BME280;40891;47.242;8.648;2024-02-04T02:47:40;97626.50;;;5.05;100.00
54994;BME280;40891;47.242;8.648;2024-02-04T02:50:07;97626.19;;;5.17;100.00
54994;BME280;40891;47.242;8.648;2024-02-04T02:52:33;97633.28;;;5.21;100.00
54994;BME280;40891;47.242;8.648;2024-02-04T02:54:59;97647.09;;;5.28;100.00
54994;BME280;40891;47.242;8.648;2024-02-04T02:57:24;97648.34;;;5.38;100.00
54994;BME280;40891;47.242;8.648;2024-02-04T02:59:49;97651.84;;;5.35;100.00
54994;BME280;40891;47.242;8.648;2024-02-04T03:02:14;97644.81;;;5.44;100.00
54994;BME280;40891;47.242;8.648;2024-02-04T03:04:40;97652.31;;;5.44;100.00
54994;BME280;40891;47.242;8.648;2024-02-04T03:07:05;97660.59;;;5.47;100.00
54994;BME280;40891;47.242;8.648;2024-02-04T03:09:32;97647.56;;;5.41;100.00
54994;BME280;40891;47.242;8.648;2024-02-04T03:11:58;97646.03;;;5.50;100.00
54994;BME280;40891;47.242;8.648;2024-02-04T03:14:23;97646.03;;;5.50;100.00
54994;BME280;40891;47.242;8.648;2024-02-04T03:16:48;97654.31;;;5.50;100.00
54994;BME280;40891;47.242;8.648;2024-02-04T03:19:14;97664.94;;;5.48;100.00
54994;BME280;40891;47.242;8.648;2024-02-04T03:21:39;97660.19;;;5.49;100.00
54994;BME280;40891;47.242;8.648;2024-02-04T03:24:04;97663.72;;;5.42;100.00
54994;BME280;40891;47.242;8.648;2024-02-04T03:26:30;97661.69;;;5.32;100.00
54994;BME280;40891;47.242;8.648;2024-02-04T03:28:55;97660.56;;;5.40;100.00
54994;BME280;40891;47.242;8.648;2024-02-04T03:31:22;97660.97;;;5.49;100.00
54994;BME280;40891;47.242;8.648;2024-02-04T03:33:47;97668.41;;;5.35;100.00
54994;BME280;40891;47.242;8.648;2024-02-04T03:36:18;97670.72;;;5.22;100.00
54994;BME280;40891;47.242;8.648;2024-02-04T03:38:43;97675.88;;;5.27;100.00
54994;BME280;40891;47.242;8.648;2024-02-04T03:41:09;97676.63;;;5.24;100.00
54994;BME280;40891;47.242;8.648;2024-02-04T03:43:36;97679.75;;;5.16;100.00
54994;BME280;40891;47.242;8.648;2024-02-04T03:46:01;97676.56;;;5.10;100.00
54994;BME280;40891;47.242;8.648;2024-02-04T03:48:27;97680.47;;;5.09;100.00
54994;BME280;40891;47.242;8.648;2024-02-04T03:50:52;97693.38;;;4.95;100.00
54994;BME280;40891;47.242;8.648;2024-02-04T03:53:17;97697.75;;;4.99;100.00
54994;BME280;40891;47.242;8.648;2024-02-04T03:55:44;97699.69;;;4.95;100.00
54994;BME280;40891;47.242;8.648;2024-02-04T03:58:09;97707.19;;;5.02;100.00
54994;BME280;40891;47.242;8.648;2024-02-04T04:00:34;97717.34;;;4.87;100.00
54994;BME280;40891;47.242;8.648;2024-02-04T04:03:00;97716.56;;;4.90;100.00
54994;BME280;40891;47.242;8.648;2024-02-04T04:05:25;97717.38;;;4.91;100.00
54994;BME280;40891;47.242;8.648;2024-02-04T04:07:51;97709.13;;;4.94;100.00
54994;BME280;40891;47.242;8.648;2024-02-04T04:10:17;97718.66;;;5.04;100.00
54994;BME280;40891;47.242;8.648;2024-02-04T04:12:42;97715.94;;;5.11;100.00
54994;BME280;40891;47.242;8.648;2024-02-04T04:15:07;97711.31;;;5.29;100.00
54994;BME280;40891;47.242;8.648;2024-02-04T04:17:33;97719.53;;;5.22;100.00
54994;BME280;40891;47.242;8.648;2024-02-04T04:19:58;97717.91;;;5.14;100.00
54994;BME280;40891;47.242;8.648;2024-02-04T04:22:24;97719.16;;;5.23;100.00
54994;BME280;40891;47.242;8.648;2024-02-04T04:24:49;97710.00;;;5.05;100.00
54994;BME280;40891;47.242;8.648;2024-02-04T04:27:14;97701.81;;;5.19;100.00
54994;BME280;40891;47.242;8.648;2024-02-04T04:29:39;97704.03;;;4.96;100.00
54994;BME280;40891;47.242;8.648;2024-02-04T04:32:05;97715.19;;;4.63;100.00
54994;BME280;40891;47.242;8.648;2024-02-04T04:34:30;97720.22;;;4.54;100.00
54994;BME280;40891;47.242;8.648;2024-02-04T04:36:56;97720.13;;;4.43;100.00
54994;BME280;40891;47.242;8.648;2024-02-04T04:39:21;97719.31;;;4.39;100.00
54994;BME280;40891;47.242;8.648;2024-02-04T04:41:46;97711.47;;;4.41;100.00
54994;BME280;40891;47.242;8.648;2024-02-04T04:44:12;97720.03;;;4.33;100.00
54994;BME280;40891;47.242;8.648;2024-02-04T04:46:38;97712.06;;;4.21;100.00
54994;BME280;40891;47.242;8.648;2024-02-04T04:49:04;97706.50;;;4.17;100.00
54994;BME280;40891;47.242;8.648;2024-02-04T04:51:29;97701.78;;;4.18;100.00
54994;BME280;40891;47.242;8.648;2024-02-04T04:53:54;97697.22;;;4.32;100.00
54994;BME280;40891;47.242;8.648;2024-02-04T04:56:20;97695.94;;;4.23;100.00
54994;BME280;40891;47.242;8.648;2024-02-04T04:58:45;97701.91;;;4.28;100.00
54994;BME280;40891;47.242;8.648;2024-02-04T05:01:10;97690.47;;;4.26;100.00
54994;BME280;40891;47.242;8.648;2024-02-04T05:03:36;97695.41;;;4.06;100.00
54994;BME280;40891;47.242;8.648;2024-02-04T05:06:01;97691.81;;;4.02;100.00
54994;BME280;40891;47.242;8.648;2024-02-04T05:08:26;97697.34;;;4.06;100.00
54994;BME280;40891;47.242;8.648;2024-02-04T05:10:52;97700.25;;;4.20;100.00
54994;BME280;40891;47.242;8.648;2024-02-04T05:13:17;97703.41;;;4.22;100.00
54994;BME280;40891;47.242;8.648;2024-02-04T05:15:42;97701.13;;;4.28;100.00
54994;BME280;40891;47.242;8.648;2024-02-04T05:18:08;97703.81;;;4.21;100.00
54994;BME280;40891;47.242;8.648;2024-02-04T05:20:33;97699.34;;;4.09;100.00
54994;BME280;40891;47.242;8.648;2024-02-04T05:23:00;97695.19;;;3.89;100.00
54994;BME280;40891;47.242;8.648;2024-02-04T05:25:25;97692.16;;;3.97;100.00
54994;BME280;40891;47.242;8.648;2024-02-04T05:27:50;97688.56;;;3.93;100.00
54994;BME280;40891;47.242;8.648;2024-02-04T05:30:16;97689.38;;;3.94;100.00
54994;BME280;40891;47.242;8.648;2024-02-04T05:32:41;97682.25;;;3.89;100.00
54994;BME280;40891;47.242;8.648;2024-02-04T05:35:09;97682.72;;;3.98;100.00
54994;BME280;40891;47.242;8.648;2024-02-04T05:37:35;97682.00;;;4.05;100.00
54994;BME280;40891;47.242;8.648;2024-02-04T05:40:00;97682.13;;;4.19;100.00
54994;BME280;40891;47.242;8.648;2024-02-04T05:42:26;97684.41;;;4.10;100.00
54994;BME280;40891;47.242;8.648;2024-02-04T05:44:51;97681.31;;;4.15;100.00
54994;BME280;40891;47.242;8.648;2024-02-04T05:47:16;97677.03;;;4.18;100.00
54994;BME280;40891;47.242;8.648;2024-02-04T05:49:42;97680.59;;;4.22;100.00
54994;BME280;40891;47.242;8.648;2024-02-04T05:52:08;97681.38;;;4.22;100.00
54994;BME280;40891;47.242;8.648;2024-02-04T05:54:37;97680.25;;;4.27;100.00
54994;BME280;40891;47.242;8.648;2024-02-04T05:57:03;97679.16;;;4.38;100.00
54994;BME280;40891;47.242;8.648;2024-02-04T05:59:29;97670.50;;;4.33;100.00
54994;BME280;40891;47.242;8.648;2024-02-04T06:01:54;97670.50;;;4.33;100.00
54994;BME280;40891;47.242;8.648;2024-02-04T06:04:19;97669.28;;;4.30;100.00
54994;BME280;40891;47.242;8.648;2024-02-04T06:06:46;97673.25;;;4.36;100.00
54994;BME280;40891;47.242;8.648;2024-02-04T06:09:11;97673.72;;;4.42;100.00
54994;BME280;40891;47.242;8.648;2024-02-04T06:11:36;97683.88;;;4.34;100.00
54994;BME280;40891;47.242;8.648;2024-02-04T06:14:01;97696.47;;;4.35;100.00
54994;BME280;40891;47.242;8.648;2024-02-04T06:16:27;97694.94;;;4.41;100.00
54994;BME280;40891;47.242;8.648;2024-02-04T06:18:52;97685.94;;;4.44;100.00
54994;BME280;40891;47.242;8.648;2024-02-04T06:21:20;97678.69;;;4.73;100.00
54994;BME280;40891;47.242;8.648;2024-02-04T06:23:45;97688.88;;;4.69;100.00
54994;BME280;40891;47.242;8.648;2024-02-04T06:26:11;97703.41;;;4.66;100.00
54994;BME280;40891;47.242;8.648;2024-02-04T06:28:36;97713.59;;;4.58;100.00
54994;BME280;40891;47.242;8.648;2024-02-04T06:31:01;97722.97;;;4.54;100.00
54994;BME280;40891;47.242;8.648;2024-02-04T06:33:27;97731.66;;;4.59;100.00
54994;BME280;40891;47.242;8.648;2024-02-04T06:35:53;97733.66;;;4.62;100.00
54994;BME280;40891;47.242;8.648;2024-02-04T06:38:18;97733.66;;;4.62;100.00
54994;BME280;40891;47.242;8.648;2024-02-04T06:40:44;97744.66;;;4.59;100.00
54994;BME280;40891;47.242;8.648;2024-02-04T06:43:09;97742.66;;;4.56;100.00
54994;BME280;40891;47.242;8.648;2024-02-04T06:45:34;97742.25;;;4.54;100.00
54994;BME280;40891;47.242;8.648;2024-02-04T06:48:00;97738.78;;;4.60;100.00
54994;BME280;40891;47.242;8.648;2024-02-04T06:50:25;97744.16;;;4.97;100.00
54994;BME280;40891;47.242;8.648;2024-02-04T06:52:50;97754.28;;;4.79;100.00
54994;BME280;40891;47.242;8.648;2024-02-04T06:55:16;97749.56;;;4.83;100.00
54994;BME280;40891;47.242;8.648;2024-02-04T06:57:41;97743.19;;;4.72;100.00
54994;BME280;40891;47.242;8.648;2024-02-04T07:00:07;97751.44;;;4.68;100.00
54994;BME280;40891;47.242;8.648;2024-02-04T07:02:36;97744.78;;;4.73;100.00
54994;BME280;40891;47.242;8.648;2024-02-04T07:05:02;97739.69;;;4.75;100.00
54994;BME280;40891;47.242;8.648;2024-02-04T07:07:28;97741.59;;;4.71;100.00
54994;BME280;40891;47.242;8.648;2024-02-04T07:09:53;97744.78;;;4.73;100.00
54994;BME280;40891;47.242;8.648;2024-02-04T07:12:19;97744.13;;;4.90;100.00
54994;BME280;40891;47.242;8.648;2024-02-04T07:14:44;97742.56;;;4.89;100.00
54994;BME280;40891;47.242;8.648;2024-02-04T07:17:09;97740.50;;;4.79;100.00
54994;BME280;40891;47.242;8.648;2024-02-04T07:19:37;97739.00;;;4.89;100.00
54994;BME280;40891;47.242;8.648;2024-02-04T07:22:03;97740.94;;;4.85;100.00
54994;BME280;40891;47.242;8.648;2024-02-04T07:24:28;97741.78;;;4.92;100.00
54994;BME280;40891;47.242;8.648;2024-02-04T07:26:54;97737.84;;;4.93;100.00
54994;BME280;40891;47.242;8.648;2024-02-04T07:29:19;97728.13;;;5.10;100.00
54994;BME280;40891;47.242;8.648;2024-02-04T07:31:44;97722.88;;;4.87;100.00
54994;BME280;40891;47.242;8.648;2024-02-04T07:34:10;97725.25;;;4.92;100.00
54994;BME280;40891;47.242;8.648;2024-02-04T07:36:35;97725.56;;;4.83;100.00
54994;BME280;40891;47.242;8.648;2024-02-04T07:39:00;97728.66;;;4.75;100.00
54994;BME280;40891;47.242;8.648;2024-02-04T07:41:28;97729.78;;;4.67;100.00
54994;BME280;40891;47.242;8.648;2024-02-04T07:43:54;97735.34;;;4.74;100.00
54994;BME280;40891;47.242;8.648;2024-02-04T07:46:19;97750.19;;;4.59;100.00
54994;BME280;40891;47.242;8.648;2024-02-04T07:48:44;97743.88;;;4.62;100.00
54994;BME280;40891;47.242;8.648;2024-02-04T07:51:09;97746.97;;;4.53;100.00
54994;BME280;40891;47.242;8.648;2024-02-04T07:53:35;97747.28;;;4.45;100.00
54994;BME280;40891;47.242;8.648;2024-02-04T07:56:01;97745.41;;;4.56;100.00
54994;BME280;40891;47.242;8.648;2024-02-04T07:58:28;97735.69;;;4.69;100.00
54994;BME280;40891;47.242;8.648;2024-02-04T08:00:54;97725.13;;;4.74;100.00
54994;BME280;40891;47.242;8.648;2024-02-04T08:03:19;97730.78;;;4.96;100.00
54994;BME280;40891;47.242;8.648;2024-02-04T08:05:44;97734.34;;;4.96;100.00
54994;BME280;40891;47.242;8.648;2024-02-04T08:08:10;97722.25;;;5.18;100.00
54994;BME280;40891;47.242;8.648;2024-02-04T08:10:35;97721.34;;;4.97;100.00
54994;BME280;40891;47.242;8.648;2024-02-04T08:13:00;97715.09;;;5.03;100.00
54994;BME280;40891;47.242;8.648;2024-02-04T08:15:26;97721.41;;;5.07;100.00
54994;BME280;40891;47.242;8.648;2024-02-04T08:17:51;97730.13;;;5.13;100.00
54994;BME280;40891;47.242;8.648;2024-02-04T08:20:17;97726.66;;;5.23;100.00
54994;BME280;40891;47.242;8.648;2024-02-04T08:22:42;97737.25;;;5.21;100.00
54994;BME280;40891;47.242;8.648;2024-02-04T08:25:08;97728.28;;;5.34;100.00
54994;BME280;40891;47.242;8.648;2024-02-04T08:27:37;97722.34;;;5.29;100.00
54994;BME280;40891;47.242;8.648;2024-02-04T08:30:02;97720.75;;;5.24;100.00
54994;BME280;40891;47.242;8.648;2024-02-04T08:32:27;97722.34;;;5.29;100.00
54994;BME280;40891;47.242;8.648;2024-02-04T08:34:53;97730.25;;;5.34;100.00
54994;BME280;40891;47.242;8.648;2024-02-04T08:37:18;97735.31;;;5.25;100.00
54994;BME280;40891;47.242;8.648;2024-02-04T08:39:44;97734.13;;;5.22;100.00
54994;BME280;40891;47.242;8.648;2024-02-04T08:42:09;97723.09;;;5.26;100.00
54994;BME280;40891;47.242;8.648;2024-02-04T08:44:34;97722.25;;;5.18;100.00
54994;BME280;40891;47.242;8.648;2024-02-04T08:47:00;97719.50;;;5.18;100.00
54994;BME280;40891;47.242;8.648;2024-02-04T08:49:25;97712.88;;;5.23;100.00
54994;BME280;40891;47.242;8.648;2024-02-04T08:51:51;97706.59;;;5.29;100.00
54994;BME280;40891;47.242;8.648;2024-02-04T08:54:16;97707.41;;;5.33;100.00
54994;BME280;40891;47.242;8.648;2024-02-04T08:56:42;97702.69;;;5.37;100.00
54994;BME280;40891;47.242;8.648;2024-02-04T08:59:08;97689.28;;;5.39;100.00
54994;BME280;40891;47.242;8.648;2024-02-04T09:01:33;97693.69;;;5.47;100.00
54994;BME280;40891;47.242;8.648;2024-02-04T09:03:58;97692.13;;;5.46;100.00
54994;BME280;40891;47.242;8.648;2024-02-04T09:06:24;97688.56;;;5.49;100.00
54994;BME280;40891;47.242;8.648;2024-02-04T09:08:49;97690.16;;;5.54;100.00
54994;BME280;40891;47.242;8.648;2024-02-04T09:11:15;97694.13;;;5.53;100.00
54994;BME280;40891;47.242;8.648;2024-02-04T09:13:44;97690.94;;;5.55;100.00
54994;BME280;40891;47.242;8.648;2024-02-04T09:16:10;97683.09;;;5.60;100.00
54994;BME280;40891;47.242;8.648;2024-02-04T09:18:36;97687.84;;;5.67;100.00
54994;BME280;40891;47.242;8.648;2024-02-04T09:21:01;97688.69;;;5.74;100.00
54994;BME280;40891;47.242;8.648;2024-02-04T09:23:27;97690.31;;;5.86;100.00
54994;BME280;40891;47.242;8.648;2024-02-04T09:25:52;97680.91;;;6.01;100.00
54994;BME280;40891;47.242;8.648;2024-02-04T09:28:17;97678.16;;;6.01;100.00
54994;BME280;40891;47.242;8.648;2024-02-04T09:30:43;97679.31;;;6.03;100.00
54994;BME280;40891;47.242;8.648;2024-02-04T09:33:08;97691.16;;;6.11;100.00
54994;BME280;40891;47.242;8.648;2024-02-04T09:35:33;97694.75;;;6.15;100.00
54994;BME280;40891;47.242;8.648;2024-02-04T09:37:59;97697.50;;;6.08;100.00
54994;BME280;40891;47.242;8.648;2024-02-04T09:40:24;97690.78;;;6.12;100.00
54994;BME280;40891;47.242;8.648;2024-02-04T09:42:49;97691.22;;;6.29;100.00
54994;BME280;40891;47.242;8.648;2024-02-04T09:45:17;97691.19;;;6.25;100.00
54994;BME280;40891;47.242;8.648;2024-02-04T09:47:45;97689.63;;;6.35;100.00
54994;BME280;40891;47.242;8.648;2024-02-04T09:50:10;97686.13;;;6.55;100.00
54994;BME280;40891;47.242;8.648;2024-02-04T09:52:39;97686.09;;;6.73;100.00
54994;BME280;40891;47.242;8.648;2024-02-04T09:55:06;97687.28;;;6.86;100.00
54994;BME280;40891;47.242;8.648;2024-02-04T09:57:33;97680.97;;;6.78;100.00
54994;BME280;40891;47.242;8.648;2024-02-04T09:59:59;97699.13;;;6.79;100.00
54994;BME280;40891;47.242;8.648;2024-02-04T10:02:25;97693.97;;;7.03;100.00
54994;BME280;40891;47.242;8.648;2024-02-04T10:04:51;97695.16;;;6.91;100.00
54994;BME280;40891;47.242;8.648;2024-02-04T10:07:16;97689.19;;;7.17;100.00
54994;BME280;40891;47.242;8.648;2024-02-04T10:09:44;97692.75;;;7.18;100.00
54994;BME280;40891;47.242;8.648;2024-02-04T10:12:09;97684.03;;;7.30;100.00
54994;BME280;40891;47.242;8.648;2024-02-04T10:14:34;97688.38;;;7.27;100.00
54994;BME280;40891;47.242;8.648;2024-02-04T10:17:00;97684.06;;;7.26;100.00
54994;BME280;40891;47.242;8.648;2024-02-04T10:19:25;97690.34;;;7.34;100.00
54994;BME280;40891;47.242;8.648;2024-02-04T10:22:00;97694.31;;;7.26;100.00
54994;BME280;40891;47.242;8.648;2024-02-04T10:24:26;97693.09;;;7.34;100.00
54994;BME280;40891;47.242;8.648;2024-02-04T10:26:52;97692.75;;;7.21;100.00
54994;BME280;40891;47.242;8.648;2024-02-04T10:29:18;97686.72;;;7.58;100.00
54994;BME280;40891;47.242;8.648;2024-02-04T10:31:43;97692.66;;;7.57;100.00
54994;BME280;40891;47.242;8.648;2024-02-04T10:34:08;97680.75;;;7.63;99.56
54994;BME280;40891;47.242;8.648;2024-02-04T10:36:34;97684.75;;;7.48;99.82
54994;BME280;40891;47.242;8.648;2024-02-04T10:38:59;97677.50;;;7.89;98.86
54994;BME280;40891;47.242;8.648;2024-02-04T10:41:25;97666.13;;;8.39;95.80
54994;BME280;40891;47.242;8.648;2024-02-04T10:43:52;97667.91;;;9.11;92.26
54994;BME280;40891;47.242;8.648;2024-02-04T10:46:19;97653.53;;;10.44;83.50
54994;BME280;40891;47.242;8.648;2024-02-04T10:48:52;97647.47;;;10.75;78.66
54994;BME280;40891;47.242;8.648;2024-02-04T10:51:24;97646.88;;;10.64;78.48
54994;BME280;40891;47.242;8.648;2024-02-04T10:53:51;97649.88;;;10.97;78.67
54994;BME280;40891;47.242;8.648;2024-02-04T10:56:22;97637.41;;;11.47;74.99
54994;BME280;40891;47.242;8.648;2024-02-04T10:58:48;97633.50;;;12.20;70.67
54994;BME280;40891;47.242;8.648;2024-02-04T11:01:14;97628.59;;;12.08;70.44
54994;BME280;40891;47.242;8.648;2024-02-04T11:03:40;97627.19;;;12.68;69.62
54994;BME280;40891;47.242;8.648;2024-02-04T11:06:07;97623.94;;;13.46;65.64
54994;BME280;40891;47.242;8.648;2024-02-04T11:08:33;97630.28;;;13.34;64.00
54994;BME280;40891;47.242;8.648;2024-02-04T11:10:59;97619.31;;;13.11;65.22
54994;BME280;40891;47.242;8.648;2024-02-04T11:13:26;97607.75;;;13.95;62.22
54994;BME280;40891;47.242;8.648;2024-02-04T11:15:53;97604.06;;;13.86;62.13
54994;BME280;40891;47.242;8.648;2024-02-04T11:18:50;97603.63;;;13.30;63.32
54994;BME280;40891;47.242;8.648;2024-02-04T11:24:27;97595.84;;;14.32;58.18
54994;BME280;40891;47.242;8.648;2024-02-04T11:26:56;97586.38;;;14.77;56.59
54994;BME280;40891;47.242;8.648;2024-02-04T11:29:22;97581.25;;;15.87;54.05
54994;BME280;40891;47.242;8.648;2024-02-04T11:31:47;97576.56;;;16.15;53.03
54994;BME280;40891;47.242;8.648;2024-02-04T11:34:13;97570.28;;;17.09;48.74
54994;BME280;40891;47.242;8.648;2024-02-04T11:36:39;97570.94;;;15.84;51.70
54994;BME280;40891;47.242;8.648;2024-02-04T11:39:14;97558.56;;;15.51;52.24
54994;BME280;40891;47.242;8.648;2024-02-04T11:41:47;97559.25;;;15.21;52.74
54994;BME280;40891;47.242;8.648;2024-02-04T11:44:19;97548.50;;;14.85;54.83
54994;BME280;40891;47.242;8.648;2024-02-04T11:46:48;97555.19;;;14.28;56.05
54994;BME280;40891;47.242;8.648;2024-02-04T11:49:17;97544.50;;;15.63;52.90
54994;BME280;40891;47.242;8.648;2024-02-04T11:51:45;97538.75;;;17.05;49.62
54994;BME280;40891;47.242;8.648;2024-02-04T11:54:11;97532.97;;;17.35;48.21
54994;BME280;40891;47.242;8.648;2024-02-04T11:56:38;97537.94;;;18.27;45.00
54994;BME280;40891;47.242;8.648;2024-02-04T11:59:05;97510.16;;;19.39;41.84
54994;BME280;40891;47.242;8.648;2024-02-04T12:01:31;97510.69;;;19.96;40.24
54994;BME280;40891;47.242;8.648;2024-02-04T12:04:11;97508.53;;;20.05;39.68
54994;BME280;40891;47.242;8.648;2024-02-04T12:06:39;97494.28;;;20.64;38.90
54994;BME280;40891;47.242;8.648;2024-02-04T12:09:05;97495.09;;;21.05;38.24
54994;BME280;40891;47.242;8.648;2024-02-04T12:11:32;97507.19;;;21.25;37.65
54994;BME280;40891;47.242;8.648;2024-02-04T12:13:59;97501.47;;;21.20;37.84
54994;BME280;40891;47.242;8.648;2024-02-04T12:16:26;97508.16;;;21.42;37.20
54994;BME280;40891;47.242;8.648;2024-02-04T12:18:52;97501.78;;;20.87;37.63
54994;BME280;40891;47.242;8.648;2024-02-04T12:21:17;97495.50;;;21.38;37.31
54994;BME280;40891;47.242;8.648;2024-02-04T12:23:42;97492.41;;;21.61;37.03
54994;BME280;40891;47.242;8.648;2024-02-04T12:26:08;97487.28;;;23.01;34.28
54994;BME280;40891;47.242;8.648;2024-02-04T12:28:33;97488.28;;;23.52;33.20
54994;BME280;40891;47.242;8.648;2024-02-04T12:30:59;97479.25;;;23.59;32.95
54994;BME280;40891;47.242;8.648;2024-02-04T12:33:25;97484.75;;;23.15;33.56
54994;BME280;40891;47.242;8.648;2024-02-04T12:35:51;97484.94;;;22.94;33.69
54994;BME280;40891;47.242;8.648;2024-02-04T12:38:17;97482.50;;;23.30;33.39
54994;BME280;40891;47.242;8.648;2024-02-04T12:40:45;97469.44;;;24.04;31.33
54994;BME280;40891;47.242;8.648;2024-02-04T12:43:11;97462.59;;;23.19;33.37
54994;BME280;40891;47.242;8.648;2024-02-04T12:45:37;97457.06;;;22.87;33.07
54994;BME280;40891;47.242;8.648;2024-02-04T12:48:02;97458.53;;;21.73;35.29
54994;BME280;40891;47.242;8.648;2024-02-04T12:50:28;97462.00;;;21.11;37.13
54994;BME280;40891;47.242;8.648;2024-02-04T12:53:06;97474.75;;;19.52;40.15
54994;BME280;40891;47.242;8.648;2024-02-04T12:55:33;97475.09;;;18.78;42.62
54994;BME280;40891;47.242;8.648;2024-02-04T12:58:03;97468.59;;;18.86;42.61